sensor_id;sensor_type;location;lat;lon;timestamp;P1;durP1;ratioP1;P2;durP2;ratioP2
41105;SDS011;74159;52.530;13.188;2024-03-02T00:01:04;63.58;;;40.92;;
41105;SDS011;74159;52.530;13.188;2024-03-02T00:03:29;67.28;;;40.95;;
41105;SDS011;74159;52.530;13.188;2024-03-02T00:05:55;67.50;;;40.95;;
41105;SDS011;74159;52.530;13.188;2024-03-02T00:08:22;66.13;;;42.55;;
41105;SDS011;74159;52.530;13.188;2024-03-02T00:10:50;64.82;;;41.03;;
41105;SDS011;74159;52.530;13.188;2024-03-02T00:13:15;69.30;;;43.28;;
41105;SDS011;74159;52.530;13.188;2024-03-02T00:15:47;65.63;;;40.42;;
41105;SDS011;74159;52.530;13.188;2024-03-02T00:18:27;69.60;;;43.00;;
41105;SDS011;74159;52.530;13.188;2024-03-02T00:20:56;68.80;;;42.88;;
41105;SDS011;74159;52.530;13.188;2024-03-02T00:23:22;72.70;;;41.40;;
41105;SDS011;74159;52.530;13.188;2024-03-02T00:25:50;72.63;;;41.28;;
41105;SDS011;74159;52.530;13.188;2024-03-02T00:28:20;62.65;;;40.92;;
41105;SDS011;74159;52.530;13.188;2024-03-02T00:31:05;64.78;;;40.58;;
41105;SDS011;74159;52.530;13.188;2024-03-02T00:35:57;71.13;;;44.60;;
41105;SDS011;74159;52.530;13.188;2024-03-02T00:38:22;73.40;;;44.88;;
41105;SDS011;74159;52.530;13.188;2024-03-02T00:40:48;73.47;;;43.35;;
41105;SDS011;74159;52.530;13.188;2024-03-02T00:45:54;65.20;;;42.10;;
41105;SDS011;74159;52.530;13.188;2024-03-02T00:48:19;70.40;;;42.78;;
41105;SDS011;74159;52.530;13.188;2024-03-02T00:50:44;70.75;;;45.33;;
41105;SDS011;74159;52.530;13.188;2024-03-02T00:53:11;69.32;;;44.67;;
41105;SDS011;74159;52.530;13.188;2024-03-02T00:55:37;70.20;;;44.67;;
41105;SDS011;74159;52.530;13.188;2024-03-02T00:58:04;77.63;;;44.35;;
41105;SDS011;74159;52.530;13.188;2024-03-02T01:00:30;75.68;;;45.60;;
41105;SDS011;74159;52.530;13.188;2024-03-02T01:02:55;72.57;;;46.30;;
41105;SDS011;74159;52.530;13.188;2024-03-02T01:05:20;73.35;;;45.85;;
41105;SDS011;74159;52.530;13.188;2024-03-02T01:07:46;78.80;;;46.42;;
41105;SDS011;74159;52.530;13.188;2024-03-02T01:10:11;71.95;;;47.60;;
41105;SDS011;74159;52.530;13.188;2024-03-02T01:12:37;77.20;;;50.35;;
41105;SDS011;74159;52.530;13.188;2024-03-02T01:15:02;88.03;;;49.22;;
41105;SDS011;74159;52.530;13.188;2024-03-02T01:17:31;78.68;;;50.45;;
41105;SDS011;74159;52.530;13.188;2024-03-02T01:19:56;77.57;;;49.75;;
41105;SDS011;74159;52.530;13.188;2024-03-02T01:22:22;77.50;;;47.00;;
41105;SDS011;74159;52.530;13.188;2024-03-02T01:24:50;76.63;;;47.90;;
41105;SDS011;74159;52.530;13.188;2024-03-02T01:27:16;74.00;;;49.25;;
41105;SDS011;74159;52.530;13.188;2024-03-02T01:29:41;74.97;;;47.67;;
41105;SDS011;74159;52.530;13.188;2024-03-02T01:32:06;77.68;;;49.70;;
41105;SDS011;74159;52.530;13.188;2024-03-02T01:34:32;77.47;;;46.95;;
41105;SDS011;74159;52.530;13.188;2024-03-02T01:36:57;71.80;;;48.75;;
41105;SDS011;74159;52.530;13.188;2024-03-02T01:39:22;75.10;;;50.03;;
41105;SDS011;74159;52.530;13.188;2024-03-02T01:41:48;72.38;;;48.80;;
41105;SDS011;74159;52.530;13.188;2024-03-02T01:44:13;74.60;;;50.15;;
41105;SDS011;74159;52.530;13.188;2024-03-02T01:46:38;77.90;;;49.90;;
41105;SDS011;74159;52.530;13.188;2024-03-02T01:49:04;81.75;;;52.15;;
41105;SDS011;74159;52.530;13.188;2024-03-02T01:51:31;77.45;;;52.92;;
41105;SDS011;74159;52.530;13.188;2024-03-02T01:53:57;79.65;;;50.47;;
41105;SDS011;74159;52.530;13.188;2024-03-02T01:56:22;82.82;;;52.95;;
41105;SDS011;74159;52.530;13.188;2024-03-02T01:58:48;81.75;;;52.95;;
41105;SDS011;74159;52.530;13.188;2024-03-02T02:01:13;90.63;;;53.97;;
41105;SDS011;74159;52.530;13.188;2024-03-02T02:03:39;80.30;;;50.70;;
41105;SDS011;74159;52.530;13.188;2024-03-02T02:06:05;78.07;;;49.53;;
41105;SDS011;74159;52.530;13.188;2024-03-02T02:08:32;82.13;;;53.60;;
41105;SDS011;74159;52.530;13.188;2024-03-02T02:10:57;75.03;;;50.92;;
41105;SDS011;74159;52.530;13.188;2024-03-02T02:13:23;85.00;;;52.47;;
41105;SDS011;74159;52.530;13.188;2024-03-02T02:15:49;87.15;;;52.75;;
41105;SDS011;74159;52.530;13.188;2024-03-02T02:18:15;80.38;;;54.13;;
41105;SDS011;74159;52.530;13.188;2024-03-02T02:20:40;79.45;;;50.67;;
41105;SDS011;74159;52.530;13.188;2024-03-02T02:23:06;85.20;;;52.63;;
41105;SDS011;74159;52.530;13.188;2024-03-02T02:25:33;92.72;;;53.67;;
41105;SDS011;74159;52.530;13.188;2024-03-02T02:27:59;84.50;;;52.85;;
41105;SDS011;74159;52.530;13.188;2024-03-02T02:30:25;93.93;;;53.10;;
41105;SDS011;74159;52.530;13.188;2024-03-02T02:32:52;88.82;;;53.38;;
41105;SDS011;74159;52.530;13.188;2024-03-02T02:35:18;91.53;;;55.95;;
41105;SDS011;74159;52.530;13.188;2024-03-02T02:37:44;98.85;;;57.63;;
41105;SDS011;74159;52.530;13.188;2024-03-02T02:40:11;95.85;;;57.10;;
41105;SDS011;74159;52.530;13.188;2024-03-02T02:42:37;90.55;;;56.58;;
41105;SDS011;74159;52.530;13.188;2024-03-02T02:45:03;85.28;;;54.60;;
41105;SDS011;74159;52.530;13.188;2024-03-02T02:47:29;88.13;;;56.58;;
41105;SDS011;74159;52.530;13.188;2024-03-02T02:49:55;96.63;;;57.17;;
41105;SDS011;74159;52.530;13.188;2024-03-02T02:52:20;94.82;;;56.97;;
41105;SDS011;74159;52.530;13.188;2024-03-02T02:54:46;105.45;;;58.78;;
41105;SDS011;74159;52.530;13.188;2024-03-02T02:57:11;93.88;;;56.97;;
41105;SDS011;74159;52.530;13.188;2024-03-02T02:59:37;90.60;;;56.92;;
41105;SDS011;74159;52.530;13.188;2024-03-02T03:02:02;100.57;;;56.55;;
41105;SDS011;74159;52.530;13.188;2024-03-02T03:04:27;99.32;;;57.85;;
41105;SDS011;74159;52.530;13.188;2024-03-02T03:06:53;103.30;;;59.85;;
41105;SDS011;74159;52.530;13.188;2024-03-02T03:09:18;104.32;;;61.22;;
41105;SDS011;74159;52.530;13.188;2024-03-02T03:11:43;101.68;;;60.38;;
41105;SDS011;74159;52.530;13.188;2024-03-02T03:14:09;102.70;;;62.38;;
41105;SDS011;74159;52.530;13.188;2024-03-02T03:16:34;98.43;;;60.75;;
41105;SDS011;74159;52.530;13.188;2024-03-02T03:19:00;110.97;;;64.63;;
41105;SDS011;74159;52.530;13.188;2024-03-02T03:21:25;103.50;;;65.07;;
41105;SDS011;74159;52.530;13.188;2024-03-02T03:23:50;102.47;;;63.45;;
41105;SDS011;74159;52.530;13.188;2024-03-02T03:26:16;107.22;;;66.63;;
41105;SDS011;74159;52.530;13.188;2024-03-02T03:28:41;108.05;;;66.18;;
41105;SDS011;74159;52.530;13.188;2024-03-02T03:31:06;115.05;;;67.95;;
41105;SDS011;74159;52.530;13.188;2024-03-02T03:33:32;116.10;;;67.80;;
41105;SDS011;74159;52.530;13.188;2024-03-02T03:35:57;108.75;;;68.57;;
41105;SDS011;74159;52.530;13.188;2024-03-02T03:38:23;107.45;;;65.93;;
41105;SDS011;74159;52.530;13.188;2024-03-02T03:40:48;116.93;;;67.70;;
41105;SDS011;74159;52.530;13.188;2024-03-02T03:43:13;106.82;;;67.45;;
41105;SDS011;74159;52.530;13.188;2024-03-02T03:45:39;111.55;;;66.13;;
41105;SDS011;74159;52.530;13.188;2024-03-02T03:48:04;111.00;;;67.47;;
41105;SDS011;74159;52.530;13.188;2024-03-02T03:50:30;110.72;;;67.85;;
41105;SDS011;74159;52.530;13.188;2024-03-02T03:52:55;101.75;;;64.40;;
41105;SDS011;74159;52.530;13.188;2024-03-02T03:55:20;112.45;;;69.00;;
41105;SDS011;74159;52.530;13.188;2024-03-02T03:57:46;112.25;;;67.13;;
41105;SDS011;74159;52.530;13.188;2024-03-02T04:00:11;102.13;;;66.30;;
41105;SDS011;74159;52.530;13.188;2024-03-02T04:02:37;109.65;;;65.43;;
41105;SDS011;74159;52.530;13.188;2024-03-02T04:05:03;100.15;;;63.45;;
41105;SDS011;74159;52.530;13.188;2024-03-02T04:07:33;102.13;;;65.70;;
41105;SDS011;74159;52.530;13.188;2024-03-02T04:10:04;97.45;;;63.13;;
41105;SDS011;74159;52.530;13.188;2024-03-02T04:12:33;101.47;;;61.20;;
41105;SDS011;74159;52.530;13.188;2024-03-02T04:14:58;96.22;;;62.47;;
41105;SDS011;74159;52.530;13.188;2024-03-02T04:17:24;98.13;;;59.53;;
41105;SDS011;74159;52.530;13.188;2024-03-02T04:19:49;91.20;;;59.83;;
41105;SDS011;74159;52.530;13.188;2024-03-02T04:22:15;100.00;;;63.70;;
41105;SDS011;74159;52.530;13.188;2024-03-02T04:24:40;105.10;;;64.95;;
41105;SDS011;74159;52.530;13.188;2024-03-02T04:27:05;103.75;;;63.65;;
41105;SDS011;74159;52.530;13.188;2024-03-02T04:29:31;98.75;;;63.25;;
41105;SDS011;74159;52.530;13.188;2024-03-02T04:31:56;100.00;;;66.38;;
41105;SDS011;74159;52.530;13.188;2024-03-02T04:34:21;113.43;;;68.32;;
41105;SDS011;74159;52.530;13.188;2024-03-02T04:36:47;102.53;;;65.68;;
41105;SDS011;74159;52.530;13.188;2024-03-02T04:39:12;108.85;;;65.93;;
41105;SDS011;74159;52.530;13.188;2024-03-02T04:41:37;99.13;;;62.97;;
41105;SDS011;74159;52.530;13.188;2024-03-02T04:44:03;87.78;;;58.20;;
41105;SDS011;74159;52.530;13.188;2024-03-02T04:46:28;95.40;;;60.22;;
41105;SDS011;74159;52.530;13.188;2024-03-02T04:48:53;92.88;;;60.08;;
41105;SDS011;74159;52.530;13.188;2024-03-02T04:51:22;93.93;;;61.15;;
41105;SDS011;74159;52.530;13.188;2024-03-02T04:53:47;93.15;;;60.80;;
41105;SDS011;74159;52.530;13.188;2024-03-02T04:56:13;105.35;;;63.80;;
41105;SDS011;74159;52.530;13.188;2024-03-02T04:58:56;90.95;;;61.15;;
41105;SDS011;74159;52.530;13.188;2024-03-02T05:01:21;90.45;;;59.17;;
41105;SDS011;74159;52.530;13.188;2024-03-02T05:03:47;89.63;;;56.58;;
41105;SDS011;74159;52.530;13.188;2024-03-02T05:06:12;90.38;;;58.83;;
41105;SDS011;74159;52.530;13.188;2024-03-02T05:08:37;87.80;;;55.85;;
41105;SDS011;74159;52.530;13.188;2024-03-02T05:11:03;99.18;;;58.83;;
41105;SDS011;74159;52.530;13.188;2024-03-02T05:13:51;95.03;;;63.20;;
41105;SDS011;74159;52.530;13.188;2024-03-02T05:16:17;93.22;;;59.53;;
41105;SDS011;74159;52.530;13.188;2024-03-02T05:18:42;100.47;;;60.85;;
41105;SDS011;74159;52.530;13.188;2024-03-02T05:21:07;94.35;;;62.10;;
41105;SDS011;74159;52.530;13.188;2024-03-02T05:23:33;95.75;;;63.25;;
41105;SDS011;74159;52.530;13.188;2024-03-02T05:25:58;103.30;;;65.68;;
41105;SDS011;74159;52.530;13.188;2024-03-02T05:28:24;107.70;;;68.38;;
41105;SDS011;74159;52.530;13.188;2024-03-02T05:30:49;115.07;;;68.20;;
41105;SDS011;74159;52.530;13.188;2024-03-02T05:33:14;108.65;;;67.78;;
41105;SDS011;74159;52.530;13.188;2024-03-02T05:35:40;111.68;;;68.82;;
41105;SDS011;74159;52.530;13.188;2024-03-02T05:38:05;103.80;;;65.38;;
41105;SDS011;74159;52.530;13.188;2024-03-02T05:40:30;103.35;;;66.30;;
41105;SDS011;74159;52.530;13.188;2024-03-02T05:42:56;104.15;;;64.97;;
41105;SDS011;74159;52.530;13.188;2024-03-02T05:45:21;104.40;;;67.05;;
41105;SDS011;74159;52.530;13.188;2024-03-02T05:47:47;114.45;;;68.55;;
41105;SDS011;74159;52.530;13.188;2024-03-02T05:50:12;115.88;;;68.18;;
41105;SDS011;74159;52.530;13.188;2024-03-02T05:52:37;117.22;;;70.78;;
41105;SDS011;74159;52.530;13.188;2024-03-02T05:55:04;117.28;;;72.00;;
41105;SDS011;74159;52.530;13.188;2024-03-02T05:57:29;128.55;;;72.25;;
41105;SDS011;74159;52.530;13.188;2024-03-02T06:00:17;122.25;;;71.60;;
41105;SDS011;74159;52.530;13.188;2024-03-02T06:02:43;114.75;;;70.43;;
41105;SDS011;74159;52.530;13.188;2024-03-02T06:05:08;111.50;;;70.00;;
41105;SDS011;74159;52.530;13.188;2024-03-02T06:07:34;109.95;;;67.70;;
41105;SDS011;74159;52.530;13.188;2024-03-02T06:09:59;110.70;;;67.45;;
41105;SDS011;74159;52.530;13.188;2024-03-02T06:12:24;112.10;;;68.80;;
41105;SDS011;74159;52.530;13.188;2024-03-02T06:14:50;112.25;;;67.80;;
41105;SDS011;74159;52.530;13.188;2024-03-02T06:17:15;108.68;;;67.43;;
41105;SDS011;74159;52.530;13.188;2024-03-02T06:19:41;105.85;;;65.47;;
41105;SDS011;74159;52.530;13.188;2024-03-02T06:22:06;104.95;;;66.88;;
41105;SDS011;74159;52.530;13.188;2024-03-02T06:24:35;105.97;;;66.07;;
41105;SDS011;74159;52.530;13.188;2024-03-02T06:27:01;103.82;;;64.15;;
41105;SDS011;74159;52.530;13.188;2024-03-02T06:29:27;99.07;;;63.85;;
41105;SDS011;74159;52.530;13.188;2024-03-02T06:31:52;107.70;;;64.05;;
41105;SDS011;74159;52.530;13.188;2024-03-02T06:34:17;97.07;;;60.17;;
41105;SDS011;74159;52.530;13.188;2024-03-02T06:36:43;98.40;;;59.80;;
41105;SDS011;74159;52.530;13.188;2024-03-02T06:39:08;95.45;;;62.03;;
41105;SDS011;74159;52.530;13.188;2024-03-02T06:41:35;98.38;;;60.97;;
41105;SDS011;74159;52.530;13.188;2024-03-02T06:44:00;98.65;;;59.85;;
41105;SDS011;74159;52.530;13.188;2024-03-02T06:46:26;93.82;;;59.10;;
41105;SDS011;74159;52.530;13.188;2024-03-02T06:48:51;91.35;;;59.65;;
41105;SDS011;74159;52.530;13.188;2024-03-02T06:51:16;83.75;;;54.53;;
41105;SDS011;74159;52.530;13.188;2024-03-02T06:53:42;90.53;;;55.47;;
41105;SDS011;74159;52.530;13.188;2024-03-02T06:56:07;93.45;;;58.35;;
41105;SDS011;74159;52.530;13.188;2024-03-02T06:58:35;93.72;;;58.22;;
41105;SDS011;74159;52.530;13.188;2024-03-02T07:01:01;88.18;;;56.90;;
41105;SDS011;74159;52.530;13.188;2024-03-02T07:03:26;91.50;;;57.70;;
41105;SDS011;74159;52.530;13.188;2024-03-02T07:05:51;93.38;;;57.28;;
41105;SDS011;74159;52.530;13.188;2024-03-02T07:08:17;92.82;;;58.40;;
41105;SDS011;74159;52.530;13.188;2024-03-02T07:10:42;89.70;;;57.10;;
41105;SDS011;74159;52.530;13.188;2024-03-02T07:13:07;91.85;;;59.40;;
41105;SDS011;74159;52.530;13.188;2024-03-02T07:15:33;84.97;;;56.60;;
41105;SDS011;74159;52.530;13.188;2024-03-02T07:18:17;89.78;;;55.70;;
41105;SDS011;74159;52.530;13.188;2024-03-02T07:20:42;89.15;;;55.22;;
41105;SDS011;74159;52.530;13.188;2024-03-02T07:23:07;85.15;;;55.75;;
41105;SDS011;74159;52.530;13.188;2024-03-02T07:25:34;88.90;;;54.58;;
41105;SDS011;74159;52.530;13.188;2024-03-02T07:27:59;78.90;;;51.72;;
41105;SDS011;74159;52.530;13.188;2024-03-02T07:30:25;78.75;;;52.22;;
41105;SDS011;74159;52.530;13.188;2024-03-02T07:32:50;86.97;;;53.55;;
41105;SDS011;74159;52.530;13.188;2024-03-02T07:35:16;83.05;;;54.70;;
41105;SDS011;74159;52.530;13.188;2024-03-02T07:37:41;87.72;;;56.22;;
41105;SDS011;74159;52.530;13.188;2024-03-02T07:40:08;91.78;;;56.35;;
41105;SDS011;74159;52.530;13.188;2024-03-02T07:42:37;93.63;;;58.78;;
41105;SDS011;74159;52.530;13.188;2024-03-02T07:45:04;92.40;;;56.65;;
41105;SDS011;74159;52.530;13.188;2024-03-02T07:47:30;87.50;;;55.25;;
41105;SDS011;74159;52.530;13.188;2024-03-02T07:49:55;89.07;;;57.85;;
41105;SDS011;74159;52.530;13.188;2024-03-02T07:52:21;84.15;;;54.53;;
41105;SDS011;74159;52.530;13.188;2024-03-02T07:54:46;94.22;;;57.10;;
41105;SDS011;74159;52.530;13.188;2024-03-02T07:57:11;94.38;;;58.78;;
41105;SDS011;74159;52.530;13.188;2024-03-02T07:59:37;86.78;;;58.78;;
41105;SDS011;74159;52.530;13.188;2024-03-02T08:02:03;91.80;;;57.25;;
41105;SDS011;74159;52.530;13.188;2024-03-02T08:04:28;99.25;;;58.42;;
41105;SDS011;74159;52.530;13.188;2024-03-02T08:06:54;90.13;;;57.38;;
41105;SDS011;74159;52.530;13.188;2024-03-02T08:09:19;89.63;;;56.60;;
41105;SDS011;74159;52.530;13.188;2024-03-02T08:11:45;86.95;;;55.33;;
41105;SDS011;74159;52.530;13.188;2024-03-02T08:14:10;87.63;;;56.50;;
41105;SDS011;74159;52.530;13.188;2024-03-02T08:16:36;95.30;;;57.42;;
41105;SDS011;74159;52.530;13.188;2024-03-02T08:19:01;92.05;;;56.45;;
41105;SDS011;74159;52.530;13.188;2024-03-02T08:21:26;91.43;;;60.83;;
41105;SDS011;74159;52.530;13.188;2024-03-02T08:23:55;92.15;;;55.38;;
41105;SDS011;74159;52.530;13.188;2024-03-02T08:26:22;88.75;;;57.25;;
41105;SDS011;74159;52.530;13.188;2024-03-02T08:28:47;89.07;;;56.75;;
41105;SDS011;74159;52.530;13.188;2024-03-02T08:31:12;82.47;;;56.42;;
41105;SDS011;74159;52.530;13.188;2024-03-02T08:33:38;89.30;;;54.63;;
41105;SDS011;74159;52.530;13.188;2024-03-02T08:36:03;92.03;;;58.65;;
41105;SDS011;74159;52.530;13.188;2024-03-02T08:38:29;92.32;;;57.33;;
41105;SDS011;74159;52.530;13.188;2024-03-02T08:40:55;85.93;;;54.72;;
41105;SDS011;74159;52.530;13.188;2024-03-02T08:43:20;87.47;;;55.38;;
41105;SDS011;74159;52.530;13.188;2024-03-02T08:45:47;84.05;;;56.88;;
41105;SDS011;74159;52.530;13.188;2024-03-02T08:48:13;89.35;;;54.55;;
41105;SDS011;74159;52.530;13.188;2024-03-02T08:50:38;91.78;;;55.10;;
41105;SDS011;74159;52.530;13.188;2024-03-02T08:53:04;85.38;;;52.90;;
41105;SDS011;74159;52.530;13.188;2024-03-02T08:55:29;82.05;;;52.70;;
41105;SDS011;74159;52.530;13.188;2024-03-02T08:57:55;86.97;;;53.65;;
41105;SDS011;74159;52.530;13.188;2024-03-02T09:00:21;84.00;;;52.30;;
41105;SDS011;74159;52.530;13.188;2024-03-02T09:02:47;76.70;;;49.38;;
41105;SDS011;74159;52.530;13.188;2024-03-02T09:05:12;82.28;;;52.45;;
41105;SDS011;74159;52.530;13.188;2024-03-02T09:07:38;76.70;;;48.67;;
41105;SDS011;74159;52.530;13.188;2024-03-02T09:10:04;80.65;;;51.33;;
41105;SDS011;74159;52.530;13.188;2024-03-02T09:12:31;74.07;;;49.78;;
41105;SDS011;74159;52.530;13.188;2024-03-02T09:14:56;82.35;;;49.95;;
41105;SDS011;74159;52.530;13.188;2024-03-02T09:17:22;76.68;;;49.17;;
41105;SDS011;74159;52.530;13.188;2024-03-02T09:19:48;75.78;;;49.45;;
41105;SDS011;74159;52.530;13.188;2024-03-02T09:22:13;78.88;;;49.55;;
41105;SDS011;74159;52.530;13.188;2024-03-02T09:24:39;81.38;;;50.70;;
41105;SDS011;74159;52.530;13.188;2024-03-02T09:27:04;74.05;;;47.65;;
41105;SDS011;74159;52.530;13.188;2024-03-02T09:29:30;82.85;;;49.92;;
41105;SDS011;74159;52.530;13.188;2024-03-02T09:31:56;80.95;;;48.80;;
41105;SDS011;74159;52.530;13.188;2024-03-02T09:34:21;76.45;;;47.78;;
41105;SDS011;74159;52.530;13.188;2024-03-02T09:36:47;78.28;;;48.78;;
41105;SDS011;74159;52.530;13.188;2024-03-02T09:39:12;74.47;;;46.85;;
41105;SDS011;74159;52.530;13.188;2024-03-02T09:41:38;84.15;;;51.25;;
41105;SDS011;74159;52.530;13.188;2024-03-02T09:44:04;69.28;;;45.53;;
41105;SDS011;74159;52.530;13.188;2024-03-02T09:46:30;66.55;;;45.35;;
41105;SDS011;74159;52.530;13.188;2024-03-02T09:48:56;70.60;;;47.38;;
41105;SDS011;74159;52.530;13.188;2024-03-02T09:51:22;71.10;;;44.58;;
41105;SDS011;74159;52.530;13.188;2024-03-02T09:53:48;70.47;;;44.80;;
41105;SDS011;74159;52.530;13.188;2024-03-02T09:56:14;69.32;;;43.83;;
41105;SDS011;74159;52.530;13.188;2024-03-02T09:58:41;66.30;;;45.05;;
41105;SDS011;74159;52.530;13.188;2024-03-02T10:01:07;63.58;;;43.08;;
41105;SDS011;74159;52.530;13.188;2024-03-02T10:03:33;63.45;;;42.13;;
41105;SDS011;74159;52.530;13.188;2024-03-02T10:08:52;58.33;;;39.72;;
41105;SDS011;74159;52.530;13.188;2024-03-02T10:11:26;69.68;;;41.70;;
41105;SDS011;74159;52.530;13.188;2024-03-02T10:16:37;64.93;;;41.75;;
41105;SDS011;74159;52.530;13.188;2024-03-02T10:21:48;58.63;;;38.65;;
41105;SDS011;74159;52.530;13.188;2024-03-02T10:24:18;60.38;;;38.92;;
41105;SDS011;74159;52.530;13.188;2024-03-02T10:26:44;56.58;;;37.90;;
41105;SDS011;74159;52.530;13.188;2024-03-02T10:29:10;53.85;;;38.42;;
41105;SDS011;74159;52.530;13.188;2024-03-02T10:31:36;53.08;;;36.28;;
41105;SDS011;74159;52.530;13.188;2024-03-02T10:34:03;51.45;;;34.65;;
41105;SDS011;74159;52.530;13.188;2024-03-02T10:36:28;51.85;;;33.08;;
41105;SDS011;74159;52.530;13.188;2024-03-02T10:38:56;47.90;;;32.38;;
41105;SDS011;74159;52.530;13.188;2024-03-02T10:41:25;47.33;;;31.50;;
41105;SDS011;74159;52.530;13.188;2024-03-02T10:43:55;47.05;;;30.95;;
41105;SDS011;74159;52.530;13.188;2024-03-02T10:46:34;44.17;;;30.83;;
41105;SDS011;74159;52.530;13.188;2024-03-02T10:49:02;46.08;;;29.30;;
41105;SDS011;74159;52.530;13.188;2024-03-02T10:51:30;43.75;;;29.50;;
41105;SDS011;74159;52.530;13.188;2024-03-02T10:54:01;43.90;;;28.65;;
41105;SDS011;74159;52.530;13.188;2024-03-02T10:56:29;39.75;;;27.67;;
41105;SDS011;74159;52.530;13.188;2024-03-02T10:58:55;40.05;;;28.00;;
41105;SDS011;74159;52.530;13.188;2024-03-02T11:01:29;43.78;;;26.70;;
41105;SDS011;74159;52.530;13.188;2024-03-02T11:03:56;39.63;;;27.15;;
41105;SDS011;74159;52.530;13.188;2024-03-02T11:06:23;35.67;;;25.70;;
41105;SDS011;74159;52.530;13.188;2024-03-02T11:08:51;36.40;;;24.95;;
41105;SDS011;74159;52.530;13.188;2024-03-02T11:11:25;36.28;;;26.58;;
41105;SDS011;74159;52.530;13.188;2024-03-02T11:13:54;37.58;;;26.90;;
41105;SDS011;74159;52.530;13.188;2024-03-02T11:19:00;35.13;;;25.52;;
41105;SDS011;74159;52.530;13.188;2024-03-02T11:21:28;41.55;;;27.98;;
41105;SDS011;74159;52.530;13.188;2024-03-02T11:23:54;39.55;;;25.63;;
41105;SDS011;74159;52.530;13.188;2024-03-02T11:26:21;36.63;;;26.08;;
41105;SDS011;74159;52.530;13.188;2024-03-02T11:28:48;37.22;;;25.95;;
41105;SDS011;74159;52.530;13.188;2024-03-02T11:31:13;35.03;;;24.25;;
41105;SDS011;74159;52.530;13.188;2024-03-02T11:33:39;41.80;;;25.50;;
41105;SDS011;74159;52.530;13.188;2024-03-02T11:36:07;34.58;;;25.58;;
41105;SDS011;74159;52.530;13.188;2024-03-02T11:38:34;33.85;;;24.42;;
41105;SDS011;74159;52.530;13.188;2024-03-02T11:41:00;38.45;;;25.83;;
41105;SDS011;74159;52.530;13.188;2024-03-02T11:43:33;43.20;;;24.13;;
41105;SDS011;74159;52.530;13.188;2024-03-02T11:46:04;33.55;;;24.48;;
41105;SDS011;74159;52.530;13.188;2024-03-02T11:48:34;35.70;;;23.92;;
41105;SDS011;74159;52.530;13.188;2024-03-02T11:51:01;36.13;;;23.85;;
41105;SDS011;74159;52.530;13.188;2024-03-02T11:53:27;31.38;;;23.85;;
41105;SDS011;74159;52.530;13.188;2024-03-02T11:55:59;31.40;;;23.27;;
41105;SDS011;74159;52.530;13.188;2024-03-02T11:58:27;31.30;;;21.90;;
41105;SDS011;74159;52.530;13.188;2024-03-02T12:00:53;34.00;;;22.08;;
41105;SDS011;74159;52.530;13.188;2024-03-02T12:03:21;31.17;;;23.00;;
41105;SDS011;74159;52.530;13.188;2024-03-02T12:05:48;35.60;;;20.58;;
41105;SDS011;74159;52.530;13.188;2024-03-02T12:08:15;31.60;;;22.30;;
41105;SDS011;74159;52.530;13.188;2024-03-02T12:10:40;28.33;;;21.55;;
41105;SDS011;74159;52.530;13.188;2024-03-02T12:13:06;26.48;;;19.95;;
41105;SDS011;74159;52.530;13.188;2024-03-02T12:15:35;31.40;;;22.67;;
41105;SDS011;74159;52.530;13.188;2024-03-02T12:18:02;30.38;;;22.05;;
41105;SDS011;74159;52.530;13.188;2024-03-02T12:20:29;33.13;;;20.63;;
41105;SDS011;74159;52.530;13.188;2024-03-02T12:22:55;29.17;;;20.85;;
41105;SDS011;74159;52.530;13.188;2024-03-02T12:25:25;29.00;;;20.65;;
41105;SDS011;74159;52.530;13.188;2024-03-02T12:27:54;27.67;;;19.52;;
41105;SDS011;74159;52.530;13.188;2024-03-02T12:30:21;29.20;;;18.88;;
41105;SDS011;74159;52.530;13.188;2024-03-02T12:32:47;25.52;;;17.77;;
41105;SDS011;74159;52.530;13.188;2024-03-02T12:35:14;25.40;;;17.80;;
41105;SDS011;74159;52.530;13.188;2024-03-02T12:37:49;25.20;;;19.13;;
41105;SDS011;74159;52.530;13.188;2024-03-02T12:40:18;25.42;;;18.23;;
41105;SDS011;74159;52.530;13.188;2024-03-02T12:42:45;26.33;;;19.30;;
41105;SDS011;74159;52.530;13.188;2024-03-02T12:45:12;28.45;;;19.67;;
41105;SDS011;74159;52.530;13.188;2024-03-02T12:47:38;30.60;;;20.08;;
41105;SDS011;74159;52.530;13.188;2024-03-02T12:50:05;27.90;;;19.98;;
41105;SDS011;74159;52.530;13.188;2024-03-02T12:52:31;22.77;;;17.38;;
41105;SDS011;74159;52.530;13.188;2024-03-02T12:55:00;25.23;;;18.27;;
41105;SDS011;74159;52.530;13.188;2024-03-02T12:57:28;26.20;;;18.52;;
41105;SDS011;74159;52.530;13.188;2024-03-02T13:00:01;28.17;;;20.15;;
41105;SDS011;74159;52.530;13.188;2024-03-02T13:02:34;29.15;;;18.42;;
41105;SDS011;74159;52.530;13.188;2024-03-02T13:05:01;25.33;;;18.05;;
41105;SDS011;74159;52.530;13.188;2024-03-02T13:07:27;24.40;;;18.42;;
41105;SDS011;74159;52.530;13.188;2024-03-02T13:09:54;20.95;;;16.60;;
41105;SDS011;74159;52.530;13.188;2024-03-02T13:12:21;28.73;;;17.38;;
41105;SDS011;74159;52.530;13.188;2024-03-02T13:14:53;23.50;;;17.48;;
41105;SDS011;74159;52.530;13.188;2024-03-02T13:17:19;24.52;;;18.50;;
41105;SDS011;74159;52.530;13.188;2024-03-02T13:19:51;24.95;;;19.27;;
41105;SDS011;74159;52.530;13.188;2024-03-02T13:22:20;25.23;;;17.57;;
41105;SDS011;74159;52.530;13.188;2024-03-02T13:24:46;25.40;;;19.15;;
41105;SDS011;74159;52.530;13.188;2024-03-02T13:27:12;24.60;;;17.70;;
41105;SDS011;74159;52.530;13.188;2024-03-02T13:29:38;24.13;;;18.40;;
41105;SDS011;74159;52.530;13.188;2024-03-02T13:32:03;26.50;;;18.95;;
41105;SDS011;74159;52.530;13.188;2024-03-02T13:34:29;24.10;;;17.98;;
41105;SDS011;74159;52.530;13.188;2024-03-02T13:36:54;25.08;;;18.42;;
41105;SDS011;74159;52.530;13.188;2024-03-02T13:39:19;25.10;;;18.25;;
41105;SDS011;74159;52.530;13.188;2024-03-02T13:41:45;24.33;;;17.27;;
41105;SDS011;74159;52.530;13.188;2024-03-02T13:44:17;25.85;;;19.02;;
41105;SDS011;74159;52.530;13.188;2024-03-02T13:46:46;28.30;;;19.10;;
41105;SDS011;74159;52.530;13.188;2024-03-02T13:49:12;29.92;;;18.83;;
41105;SDS011;74159;52.530;13.188;2024-03-02T13:51:37;29.17;;;18.48;;
41105;SDS011;74159;52.530;13.188;2024-03-02T13:54:03;26.92;;;18.58;;
41105;SDS011;74159;52.530;13.188;2024-03-02T13:56:28;22.23;;;16.67;;
41105;SDS011;74159;52.530;13.188;2024-03-02T13:58:54;24.60;;;17.05;;
41105;SDS011;74159;52.530;13.188;2024-03-02T14:01:20;22.67;;;15.27;;
41105;SDS011;74159;52.530;13.188;2024-03-02T14:03:45;24.10;;;15.38;;
41105;SDS011;74159;52.530;13.188;2024-03-02T14:06:11;22.65;;;15.38;;
41105;SDS011;74159;52.530;13.188;2024-03-02T14:08:37;21.13;;;15.38;;
41105;SDS011;74159;52.530;13.188;2024-03-02T14:11:02;21.75;;;14.50;;
41105;SDS011;74159;52.530;13.188;2024-03-02T14:13:28;20.67;;;14.50;;
41105;SDS011;74159;52.530;13.188;2024-03-02T14:15:54;23.15;;;15.45;;
41105;SDS011;74159;52.530;13.188;2024-03-02T14:18:19;18.77;;;14.27;;